createdAt,value
2022-09-07T00:03:29.208Z,18.80
2022-09-07T00:08:34.470Z,18.70
2022-09-07T00:13:40.307Z,18.60
2022-09-07T00:18:46.286Z,18.50
2022-09-07T00:23:51.892Z,18.50
2022-09-07T00:28:58.386Z,18.50
2022-09-07T00:34:02.899Z,18.60
2022-09-07T00:39:07.579Z,18.60
2022-09-07T00:45:01.746Z,18.40
2022-09-07T00:50:09.371Z,18.20
2022-09-07T00:55:17.021Z,18.10
2022-09-07T01:00:20.370Z,18.20
2022-09-07T01:05:28.662Z,18.10
2022-09-07T01:10:33.678Z,18.00
2022-09-07T01:15:46.653Z,18.00
2022-09-07T01:21:25.498Z,18.00
2022-09-07T01:27:00.827Z,17.90
2022-09-07T01:32:13.174Z,18.00
2022-09-07T01:37:22.219Z,18.00
2022-09-07T01:42:32.754Z,18.00
2022-09-07T01:47:42.362Z,18.00
2022-09-07T01:52:51.955Z,17.90
2022-09-07T01:58:00.643Z,17.80
2022-09-07T02:03:12.084Z,17.60
2022-09-07T02:08:20.305Z,17.60
2022-09-07T02:13:29.501Z,17.60
2022-09-07T02:18:39.556Z,17.50
2022-09-07T02:23:50.100Z,17.40
2022-09-07T02:28:53.579Z,17.30
2022-09-07T02:33:58.325Z,17.20
2022-09-07T02:39:01.916Z,17.20
2022-09-07T02:44:09.272Z,17.00
2022-09-07T02:49:26.671Z,17.20
2022-09-07T02:54:42.901Z,17.10
2022-09-07T02:59:56.846Z,17.20
2022-09-07T03:05:06.892Z,17.10
2022-09-07T03:10:11.142Z,17.10
2022-09-07T03:15:16.772Z,17.10
2022-09-07T03:20:23.540Z,17.00
2022-09-07T03:25:27.186Z,17.00
2022-09-07T03:30:30.679Z,17.00
2022-09-07T03:35:35.635Z,16.90
2022-09-07T03:40:39.086Z,17.00
2022-09-07T03:45:43.137Z,16.80
2022-09-07T03:50:56.924Z,16.70
2022-09-07T03:56:02.555Z,16.70
2022-09-07T04:01:08.252Z,16.60
2022-09-07T04:06:13.513Z,16.40
2022-09-07T04:11:19.413Z,16.30
2022-09-07T04:16:24.663Z,16.20
2022-09-07T04:21:33.090Z,16.20
2022-09-07T04:26:37.158Z,16.10
2022-09-07T04:31:41.003Z,16.00
2022-09-07T04:36:45.969Z,15.90
2022-09-07T04:41:49.377Z,15.80
2022-09-07T04:46:53.016Z,15.80
2022-09-07T04:51:57.671Z,15.80
2022-09-07T04:57:00.998Z,15.80
2022-09-07T05:02:04.755Z,15.70
2022-09-07T05:07:09.444Z,15.70
2022-09-07T05:12:13.201Z,15.80
2022-09-07T05:17:16.560Z,15.60
2022-09-07T05:22:22.400Z,15.60
2022-09-07T05:27:25.844Z,15.70
2022-09-07T05:32:29.459Z,15.80
2022-09-07T05:37:34.253Z,15.70
2022-09-07T05:42:37.764Z,15.70
2022-09-07T05:47:41.671Z,15.90
2022-09-07T05:52:47.974Z,16.00
2022-09-07T05:57:51.443Z,16.00
2022-09-07T06:02:54.845Z,16.10
2022-09-07T06:07:59.559Z,16.10
2022-09-07T06:13:03.027Z,16.20
2022-09-07T06:18:06.423Z,16.30
2022-09-07T06:23:11.102Z,16.30
2022-09-07T06:28:14.655Z,16.50
2022-09-07T06:33:21.427Z,16.50
2022-09-07T06:38:32.020Z,16.50
2022-09-07T06:43:36.083Z,16.60
2022-09-07T06:48:43.855Z,16.80
2022-09-07T06:53:50.279Z,16.90
2022-09-07T06:58:55.140Z,17.00
2022-09-07T07:03:58.689Z,17.10
2022-09-07T07:09:04.561Z,17.20
2022-09-07T07:14:08.267Z,17.20
2022-09-07T07:19:12.156Z,17.40
2022-09-07T07:24:16.831Z,17.50
2022-09-07T07:29:21.905Z,17.70
2022-09-07T07:34:26.496Z,17.70
2022-09-07T07:50:35.288Z,17.90
2022-09-07T07:55:43.850Z,18.10
2022-09-07T08:00:56.329Z,18.20
2022-09-07T08:06:08.075Z,18.30
2022-09-07T08:11:14.004Z,18.40
2022-09-07T08:16:19.760Z,18.60
2022-09-07T08:21:23.690Z,18.70
2022-09-07T08:26:29.081Z,18.80
2022-09-07T08:31:33.058Z,18.90
2022-09-07T08:36:38.911Z,19.10
2022-09-07T08:42:10.329Z,19.10
2022-09-07T08:47:22.239Z,19.30
2022-09-07T08:52:27.786Z,19.40
2022-09-07T08:57:36.281Z,19.60
2022-09-07T09:02:43.982Z,19.70
2022-09-07T09:07:58.506Z,19.90
2022-09-07T09:13:07.427Z,20.10
2022-09-07T09:18:26.905Z,20.20
2022-09-07T09:23:35.929Z,20.30
2022-09-07T09:28:41.199Z,20.50
2022-09-07T09:33:44.910Z,20.70
2022-09-07T09:38:48.604Z,20.80
2022-09-07T09:43:57.284Z,20.90
2022-09-07T09:49:02.539Z,21.00
2022-09-07T09:54:15.618Z,21.10
2022-09-07T10:04:51.081Z,21.40
2022-09-07T10:09:56.248Z,21.60
2022-09-07T10:15:02.319Z,21.80
2022-09-07T10:20:31.320Z,22.00
2022-09-07T10:25:36.683Z,22.10
2022-09-07T10:31:08.081Z,22.40
2022-09-07T10:36:25.966Z,22.60
2022-09-07T10:41:41.454Z,22.70
2022-09-07T10:46:57.029Z,22.90
2022-09-07T10:52:15.627Z,23.10
2022-09-07T10:57:39.085Z,23.10
2022-09-07T11:09:15.884Z,23.50
2022-09-07T11:14:13.072Z,23.70
2022-09-07T11:19:38.983Z,24.00
2022-09-07T11:25:29.089Z,24.20
2022-09-07T11:30:23.671Z,24.30
2022-09-07T11:35:37.876Z,24.60
2022-09-07T11:40:56.527Z,24.80
2022-09-07T11:46:05.019Z,25.10
2022-09-07T11:51:16.949Z,25.40
2022-09-07T11:56:27.525Z,25.60
2022-09-07T12:01:41.283Z,25.70
2022-09-07T12:07:23.724Z,25.80
2022-09-07T12:12:44.747Z,26.00
2022-09-07T12:18:02.071Z,26.20
2022-09-07T12:23:19.068Z,26.10
2022-09-07T12:28:55.895Z,26.10
2022-09-07T12:34:29.245Z,26.50
2022-09-07T12:39:35.090Z,26.70
2022-09-07T12:44:40.135Z,26.90
2022-09-07T12:50:10.150Z,27.00
2022-09-07T12:56:15.541Z,27.20
2022-09-07T13:01:13.197Z,27.30
2022-09-07T13:11:55.780Z,27.70
2022-09-07T13:17:41.629Z,27.80
2022-09-07T13:23:20.794Z,28.10
2022-09-07T13:28:32.521Z,28.00
2022-09-07T13:33:48.378Z,27.90
2022-09-07T13:38:52.618Z,28.10
2022-09-07T13:44:01.889Z,28.30
2022-09-07T13:49:18.323Z,28.60
2022-09-07T13:54:28.848Z,28.60
2022-09-07T13:59:36.309Z,29.00
2022-09-07T14:04:43.397Z,29.30
2022-09-07T14:09:48.932Z,29.50
2022-09-07T14:15:20.393Z,29.70
2022-09-07T14:20:25.396Z,29.80
2022-09-07T14:25:29.514Z,29.50
2022-09-07T14:30:34.735Z,29.50
2022-09-07T14:35:40.524Z,29.90
2022-09-07T14:40:45.192Z,30.20
2022-09-07T14:45:51.384Z,30.50
2022-09-07T14:51:18.519Z,31.10
2022-09-07T14:56:21.902Z,31.50
2022-09-07T15:01:43.607Z,31.80
2022-09-07T15:07:03.267Z,32.50
2022-09-07T15:12:27.141Z,33.40
2022-09-07T15:17:45.279Z,33.80
2022-09-07T15:22:48.748Z,34.00
2022-09-07T15:27:52.163Z,34.60
2022-09-07T15:32:57.732Z,35.10
2022-09-07T15:43:32.350Z,35.50
2022-09-07T15:48:50.592Z,34.80
2022-09-07T15:59:17.305Z,33.50
2022-09-07T16:04:24.034Z,32.80
2022-09-07T16:09:28.201Z,31.90
2022-09-07T16:14:35.045Z,31.50
2022-09-07T16:19:41.432Z,31.10
2022-09-07T16:24:44.776Z,31.00
2022-09-07T16:29:48.370Z,30.90
2022-09-07T16:34:53.163Z,30.70
2022-09-07T16:39:56.716Z,30.30
2022-09-07T16:46:02.714Z,29.90
2022-09-07T16:50:24.724Z,29.60
2022-09-07T16:55:28.009Z,29.20
2022-09-07T17:00:33.993Z,29.00
2022-09-07T17:05:41.321Z,28.80
2022-09-07T17:10:45.295Z,28.30
2022-09-07T17:15:50.767Z,28.20
2022-09-07T17:20:58.740Z,27.90
2022-09-07T17:26:06.428Z,27.70
2022-09-07T17:32:23.985Z,27.50
2022-09-07T17:36:39.274Z,27.20
2022-09-07T17:41:42.650Z,27.00
2022-09-07T17:46:47.688Z,26.90
2022-09-07T17:51:52.434Z,26.70
2022-09-07T17:56:55.800Z,26.50
2022-09-07T18:01:59.553Z,26.40
2022-09-07T18:07:04.634Z,26.30
2022-09-07T18:12:08.239Z,26.20
2022-09-07T18:17:12.507Z,26.10
2022-09-07T18:22:17.486Z,26.00
2022-09-07T18:27:25.514Z,25.90
2022-09-07T18:32:29.154Z,25.80
2022-09-07T18:37:33.931Z,25.70
2022-09-07T18:42:37.364Z,25.50
2022-09-07T18:47:45.413Z,25.40
2022-09-07T18:52:53.563Z,25.20
2022-09-07T18:57:57.377Z,25.10
2022-09-07T19:03:00.948Z,25.00
2022-09-07T19:08:05.739Z,25.00
2022-09-07T19:13:09.183Z,24.80
2022-09-07T19:18:12.577Z,24.70
2022-09-07T19:23:17.550Z,24.50
2022-09-07T19:28:21.680Z,24.40
2022-09-07T19:33:25.278Z,24.30
2022-09-07T19:38:30.206Z,24.30
2022-09-07T19:43:35.273Z,24.20
2022-09-07T19:48:38.988Z,24.20
2022-09-07T19:53:45.887Z,24.10
2022-09-07T19:58:50.746Z,24.00
2022-09-07T20:03:58.787Z,23.90
2022-09-07T20:09:03.680Z,23.80
2022-09-07T20:14:07.796Z,23.70
2022-09-07T20:19:14.551Z,23.70
2022-09-07T20:24:22.528Z,23.60
2022-09-07T20:29:28.482Z,23.50
2022-09-07T20:34:32.915Z,23.30
2022-09-07T20:39:39.607Z,23.30
2022-09-07T20:44:43.184Z,23.10
2022-09-07T20:49:46.951Z,23.10
2022-09-07T20:54:51.897Z,23.00
2022-09-07T20:59:55.447Z,23.00
2022-09-07T21:04:58.890Z,22.90
2022-09-07T21:10:06.797Z,22.70
2022-09-07T21:15:11.340Z,22.60
2022-09-07T21:20:15.871Z,22.50
2022-09-07T21:25:20.993Z,22.50
2022-09-07T21:30:24.633Z,22.40
2022-09-07T21:35:31.124Z,22.40
2022-09-07T21:40:35.794Z,22.40
2022-09-07T21:45:39.101Z,22.30
2022-09-07T21:50:42.418Z,22.30
2022-09-07T21:55:56.016Z,22.30
2022-09-07T22:01:01.316Z,22.20
2022-09-07T22:06:07.215Z,22.10
2022-09-07T22:11:14.101Z,22.00
2022-09-07T22:16:18.310Z,21.90
2022-09-07T22:21:24.042Z,21.90
2022-09-07T22:26:30.776Z,21.90
2022-09-07T22:31:36.626Z,21.90
2022-09-07T22:36:42.763Z,21.80
2022-09-07T22:41:49.081Z,21.80
2022-09-07T22:46:52.665Z,21.70
2022-09-07T22:51:55.921Z,21.60
2022-09-07T22:57:00.582Z,21.50
2022-09-07T23:02:03.974Z,21.40
2022-09-07T23:07:07.751Z,21.40
2022-09-07T23:12:12.574Z,21.30
2022-09-07T23:17:15.870Z,21.30
2022-09-07T23:22:19.423Z,21.30
2022-09-07T23:27:24.113Z,21.30
2022-09-07T23:32:27.743Z,21.30
2022-09-07T23:37:31.075Z,21.40
2022-09-07T23:42:35.999Z,21.40
2022-09-07T23:47:39.574Z,21.40
2022-09-07T23:52:42.894Z,21.40
2022-09-07T23:57:48.577Z,21.40
